Time;durP1;ratioP1;P1;durP2;ratioP2;P2;SDS_P1;SDS_P2;PMS_P1;PMS_P2;Temp;Humidity;BMP_temperature;BMP_pressure;BME280_temperature;BME280_humidity;BME280_pressure;Samples;Min_cycle;Max_cycle;Signal;HPM_P1;HPM_P2
2023/03/12 00:01:59;;;;;;;3.57;2.17;;;-0.80;99.90;;;;;;7374006;19;20364;-79
2023/03/12 00:04:25;;;;;;;3.40;1.90;;;-0.80;99.90;;;;;;7376817;19;20325;-82
2023/03/12 00:06:51;;;;;;;2.20;2.00;;;-0.80;99.90;;;;;;7378001;19;20345;-79
2023/03/12 00:09:18;;;;;;;2.30;1.97;;;-0.80;99.90;;;;;;7380837;19;20316;-79
2023/03/12 00:11:43;;;;;;;3.22;1.90;;;-0.90;99.90;;;;;;7377552;19;20333;-80
2023/03/12 00:14:09;;;;;;;2.30;2.10;;;-0.80;99.90;;;;;;7373233;19;20751;-83
2023/03/12 00:16:34;;;;;;;4.13;2.17;;;-0.90;99.90;;;;;;7378501;19;20364;-83
2023/03/12 00:19:02;;;;;;;2.03;1.88;;;-0.80;99.90;;;;;;7382857;19;20344;-84
2023/03/12 00:21:28;;;;;;;3.17;2.30;;;-0.80;99.90;;;;;;7380045;19;20324;-79
2023/03/12 00:23:53;;;;;;;2.40;2.08;;;-0.80;99.90;;;;;;7376928;19;20369;-81
2023/03/12 00:26:19;;;;;;;2.90;2.00;;;-0.80;99.90;;;;;;7382564;19;20429;-79
2023/03/12 00:28:45;;;;;;;2.40;2.17;;;-0.80;99.90;;;;;;7380599;19;20328;-78
2023/03/12 00:31:22;;;;;;;2.60;2.00;;;-0.80;99.90;;;;;;7376825;19;20301;-80
2023/03/12 00:33:49;;;;;;;2.55;2.00;;;-0.80;99.90;;;;;;7373285;19;20387;-81
2023/03/12 00:36:17;;;;;;;2.37;1.90;;;-0.80;99.90;;;;;;7376827;19;20860;-83
2023/03/12 00:38:42;;;;;;;2.23;2.03;;;-0.80;99.90;;;;;;7376812;19;20337;-83
2023/03/12 00:41:08;;;;;;;3.25;2.20;;;-0.90;99.90;;;;;;7378465;19;20371;-80
2023/03/12 00:43:35;;;;;;;2.08;1.80;;;-0.90;99.90;;;;;;7378780;19;20344;-78
2023/03/12 00:46:00;;;;;;;3.40;2.00;;;-0.90;99.90;;;;;;7373840;19;20343;-80
2023/03/12 00:48:26;;;;;;;2.05;1.80;;;-0.90;99.90;;;;;;7380203;19;20403;-81
2023/03/12 00:50:52;;;;;;;2.00;1.70;;;-0.90;99.90;;;;;;7376676;19;20332;-80
2023/03/12 00:53:17;;;;;;;3.33;2.00;;;-0.90;99.90;;;;;;7376971;19;20301;-77
2023/03/12 00:55:43;;;;;;;2.10;1.90;;;-1.00;99.90;;;;;;7377758;19;20353;-79
2023/03/12 00:58:09;;;;;;;1.90;1.80;;;-1.00;99.90;;;;;;7379848;19;20964;-85
2023/03/12 01:00:34;;;;;;;2.70;1.90;;;-1.00;99.90;;;;;;7373550;19;20353;-82
2023/03/12 01:03:00;;;;;;;3.25;1.80;;;-1.00;99.90;;;;;;7373651;19;20345;-80
2023/03/12 01:05:26;;;;;;;2.27;1.80;;;-1.00;99.90;;;;;;7370434;19;20313;-79
2023/03/12 01:07:51;;;;;;;2.10;1.90;;;-1.00;99.90;;;;;;7380944;19;20380;-81
2023/03/12 01:10:17;;;;;;;2.30;1.83;;;-1.00;99.90;;;;;;7378437;19;20535;-80
2023/03/12 01:12:44;;;;;;;2.50;1.90;;;-1.10;99.90;;;;;;7379657;19;20357;-80
2023/03/12 01:15:12;;;;;;;1.92;1.80;;;-1.10;99.90;;;;;;7383454;19;20341;-80
2023/03/12 01:17:38;;;;;;;2.88;1.70;;;-1.10;99.90;;;;;;7382233;19;20992;-84
2023/03/12 01:20:04;;;;;;;2.77;2.03;;;-1.10;99.90;;;;;;7381760;19;20317;-80
2023/03/12 01:22:30;;;;;;;2.50;1.60;;;-1.10;99.90;;;;;;7383047;19;20591;-82
2023/03/12 01:24:56;;;;;;;2.20;1.90;;;-1.00;99.90;;;;;;7384023;19;20329;-83
2023/03/12 01:27:21;;;;;;;2.17;1.97;;;-1.00;99.90;;;;;;7383720;19;20316;-78
2023/03/12 01:29:47;;;;;;;2.50;1.90;;;-1.00;99.90;;;;;;7385387;19;20317;-81
2023/03/12 01:32:15;;;;;;;2.15;1.73;;;-1.00;99.90;;;;;;7378538;19;20313;-83
2023/03/12 01:34:42;;;;;;;2.42;1.98;;;-1.00;99.90;;;;;;7380402;19;20455;-82
2023/03/12 01:37:08;;;;;;;1.95;1.75;;;-1.00;99.90;;;;;;7378895;19;20859;-84
2023/03/12 01:39:36;;;;;;;2.20;1.77;;;-1.00;99.90;;;;;;7378332;19;20333;-81
2023/03/12 01:42:02;;;;;;;1.98;1.85;;;-0.90;99.90;;;;;;7383535;19;20325;-84
2023/03/12 01:44:27;;;;;;;1.90;1.70;;;-1.00;99.90;;;;;;7380488;19;20313;-79
2023/03/12 01:46:54;;;;;;;2.40;1.80;;;-1.00;99.90;;;;;;7381600;19;20323;-85
2023/03/12 01:49:30;;;;;;;2.17;1.95;;;-1.00;99.90;;;;;;7377252;19;20332;-80
2023/03/12 01:52:00;;;;;;;1.73;1.63;;;-1.00;99.90;;;;;;7382160;19;20851;-80
2023/03/12 01:54:35;;;;;;;4.45;1.90;;;-1.00;99.90;;;;;;7380354;19;20347;-82
2023/03/12 01:57:03;;;;;;;2.20;1.90;;;-1.00;99.90;;;;;;7381431;19;20332;-77
2023/03/12 01:59:31;;;;;;;2.80;2.17;;;-1.00;99.90;;;;;;7380936;19;20336;-81
2023/03/12 02:01:57;;;;;;;2.05;1.88;;;-1.00;99.90;;;;;;7379527;19;20435;-80
2023/03/12 02:04:25;;;;;;;1.88;1.70;;;-1.00;99.90;;;;;;7378073;19;20325;-80
2023/03/12 02:07:04;;;;;;;2.83;1.90;;;-1.00;99.90;;;;;;7381767;19;20951;-80
2023/03/12 02:09:32;;;;;;;3.92;2.10;;;-1.00;99.90;;;;;;7274449;19;2004411;-80
2023/03/12 02:11:59;;;;;;;2.10;1.90;;;-1.00;99.90;;;;;;7379586;19;20315;-81
2023/03/12 02:14:26;;;;;;;2.05;1.83;;;-1.00;99.90;;;;;;7378917;19;20622;-80
2023/03/12 02:16:52;;;;;;;2.88;2.10;;;-0.90;99.90;;;;;;7379268;19;20316;-81
2023/03/12 02:19:47;;;;;;;3.35;2.08;;;-1.00;99.90;;;;;;7381597;19;20325;-80
2023/03/12 02:22:14;;;;;;;2.55;1.90;;;-1.00;99.90;;;;;;7277853;19;2004387;-82
2023/03/12 02:25:26;;;;;;;2.70;1.90;;;-1.10;99.90;;;;;;7370231;19;20312;-79
2023/03/12 02:27:52;;;;;;;2.72;2.13;;;-1.10;99.90;;;;;;7175311;19;2004289;-80
2023/03/12 02:30:18;;;;;;;2.40;1.85;;;-1.10;99.90;;;;;;7380950;19;20321;-81
2023/03/12 02:32:44;;;;;;;5.25;2.17;;;-1.10;99.90;;;;;;7360142;19;21197;-79
2023/03/12 02:35:09;;;;;;;3.40;2.00;;;-1.10;99.90;;;;;;7380613;19;20328;-82
2023/03/12 02:37:35;;;;;;;3.50;2.10;;;-1.10;99.90;;;;;;7382416;19;20317;-80
2023/03/12 02:40:12;;;;;;;2.80;1.97;;;-1.10;99.90;;;;;;7381177;19;21154;-81
2023/03/12 02:42:38;;;;;;;2.47;2.10;;;-1.10;99.90;;;;;;7381216;19;20333;-80
2023/03/12 02:45:04;;;;;;;2.17;1.97;;;-1.10;99.90;;;;;;7378745;19;20335;-88
2023/03/12 02:47:29;;;;;;;2.83;2.15;;;-1.10;99.90;;;;;;7380125;19;20312;-80
2023/03/12 02:49:56;;;;;;;2.20;2.00;;;-1.10;99.90;;;;;;7371507;19;20366;-79
2023/03/12 02:52:22;;;;;;;2.97;1.85;;;-1.10;99.90;;;;;;7380138;19;20349;-78
2023/03/12 02:54:47;;;;;;;3.67;2.10;;;-1.10;99.90;;;;;;7381027;19;20329;-80
2023/03/12 02:57:13;;;;;;;4.90;2.20;;;-1.10;99.90;;;;;;7377621;19;21195;-79
2023/03/12 02:59:39;;;;;;;3.40;2.00;;;-1.10;99.90;;;;;;7378217;19;20742;-80
2023/03/12 03:02:08;;;;;;;2.63;2.08;;;-1.10;99.90;;;;;;7375761;19;20402;-80
2023/03/12 03:04:34;;;;;;;2.00;1.90;;;-1.10;99.90;;;;;;7375632;19;20316;-82
2023/03/12 03:07:00;;;;;;;3.50;2.20;;;-1.10;99.90;;;;;;7377793;19;20354;-80
2023/03/12 03:09:26;;;;;;;3.27;2.30;;;-1.20;99.90;;;;;;7379625;19;20309;-81
2023/03/12 03:11:52;;;;;;;2.90;2.10;;;-1.20;99.90;;;;;;7380427;19;20312;-80
2023/03/12 03:14:18;;;;;;;3.10;2.10;;;-1.20;99.90;;;;;;7381060;19;20340;-79
2023/03/12 03:16:45;;;;;;;3.28;2.13;;;-1.20;99.90;;;;;;7382040;19;20650;-80
2023/03/12 03:19:10;;;;;;;3.23;2.10;;;-1.20;99.90;;;;;;7379500;19;20350;-85
2023/03/12 03:21:36;;;;;;;3.87;2.23;;;-1.20;99.90;;;;;;7380536;19;20381;-81
2023/03/12 03:24:02;;;;;;;2.75;2.00;;;-1.20;99.90;;;;;;7380422;19;20333;-80
2023/03/12 03:26:28;;;;;;;3.13;2.27;;;-1.20;99.90;;;;;;7376724;19;20723;-80
2023/03/12 03:28:54;;;;;;;2.30;2.05;;;-1.20;99.90;;;;;;7375981;19;20852;-82
2023/03/12 03:31:21;;;;;;;2.67;2.10;;;-1.20;99.90;;;;;;7377150;19;20321;-80
2023/03/12 03:33:47;;;;;;;2.40;2.05;;;-1.20;99.90;;;;;;7372372;19;20420;-78
2023/03/12 03:36:13;;;;;;;2.17;1.97;;;-1.30;99.90;;;;;;7377857;19;21268;-85
2023/03/12 03:38:48;;;;;;;2.10;1.90;;;-1.30;99.90;;;;;;7376871;19;20309;-79
2023/03/12 03:41:17;;;;;;;3.42;2.35;;;-1.30;99.90;;;;;;7373658;19;20387;-80
2023/03/12 03:43:43;;;;;;;3.10;2.05;;;-1.30;99.90;;;;;;7376830;19;20324;-80
2023/03/12 03:46:11;;;;;;;2.78;2.17;;;-1.30;99.90;;;;;;7374585;19;20350;-81
2023/03/12 03:48:41;;;;;;;2.40;2.20;;;-1.30;99.90;;;;;;7377503;19;20504;-82
2023/03/12 03:51:08;;;;;;;2.40;2.20;;;-1.30;99.90;;;;;;7377394;19;20738;-82
2023/03/12 03:53:37;;;;;;;3.53;2.10;;;-1.30;99.90;;;;;;7377114;19;20415;-82
2023/03/12 03:56:10;;;;;;;2.28;2.08;;;-1.30;99.90;;;;;;7373734;19;20405;-80
2023/03/12 03:58:39;;;;;;;2.53;2.13;;;-1.30;99.90;;;;;;7375519;19;20415;-80
2023/03/12 04:01:05;;;;;;;2.80;2.30;;;-1.30;99.90;;;;;;7375753;19;20669;-78
2023/03/12 04:03:31;;;;;;;2.33;2.13;;;-1.30;99.90;;;;;;7375077;19;20436;-79
2023/03/12 04:05:58;;;;;;;3.08;2.10;;;-1.30;99.90;;;;;;7375819;19;20341;-79
2023/03/12 04:08:25;;;;;;;3.00;2.20;;;-1.30;99.90;;;;;;7372949;19;20457;-78
2023/03/12 04:10:52;;;;;;;2.10;1.90;;;-1.30;99.90;;;;;;7376022;19;20340;-80
2023/03/12 04:13:18;;;;;;;3.67;2.17;;;-1.40;99.90;;;;;;7374762;19;20315;-82
2023/03/12 04:15:51;;;;;;;3.05;2.10;;;-1.40;99.90;;;;;;7374357;19;20396;-79
2023/03/12 04:18:17;;;;;;;3.10;2.40;;;-1.40;99.90;;;;;;7376565;19;20408;-78
2023/03/12 04:20:43;;;;;;;2.40;2.20;;;-1.40;99.90;;;;;;7375545;19;20714;-80
2023/03/12 04:23:09;;;;;;;3.03;2.10;;;-1.40;99.90;;;;;;7376414;19;20950;-79
2023/03/12 04:25:35;;;;;;;2.37;2.10;;;-1.40;99.90;;;;;;7372712;19;20316;-78
2023/03/12 04:28:01;;;;;;;2.67;2.03;;;-1.40;99.90;;;;;;7377465;19;20433;-78
2023/03/12 04:30:27;;;;;;;2.10;1.90;;;-1.50;99.90;;;;;;7378030;19;20316;-81
2023/03/12 04:32:53;;;;;;;2.20;2.00;;;-1.40;99.90;;;;;;7377752;19;20328;-79
2023/03/12 04:35:18;;;;;;;2.47;1.95;;;-1.40;99.90;;;;;;7376690;19;20324;-81
2023/03/12 04:37:44;;;;;;;2.73;2.00;;;-1.40;99.90;;;;;;7376193;19;20305;-79
2023/03/12 04:40:10;;;;;;;2.37;2.00;;;-1.50;99.90;;;;;;7376650;19;20320;-82
2023/03/12 04:42:36;;;;;;;2.30;1.90;;;-1.50;99.90;;;;;;7375997;19;20675;-79
2023/03/12 04:45:04;;;;;;;2.30;1.98;;;-1.50;99.90;;;;;;7382250;19;20632;-79
2023/03/12 04:47:30;;;;;;;2.72;2.00;;;-1.50;99.90;;;;;;7384157;19;20881;-78
2023/03/12 04:49:56;;;;;;;2.40;1.90;;;-1.50;99.90;;;;;;7385334;19;20681;-82
2023/03/12 04:52:22;;;;;;;2.60;2.10;;;-1.40;99.90;;;;;;7384122;19;20327;-83
2023/03/12 04:54:47;;;;;;;2.17;1.98;;;-1.50;99.90;;;;;;7384736;19;20308;-81
2023/03/12 04:57:13;;;;;;;1.90;1.70;;;-1.50;99.90;;;;;;7384966;19;20343;-79
2023/03/12 04:59:40;;;;;;;2.55;2.05;;;-1.40;99.90;;;;;;7384994;19;20839;-80
2023/03/12 05:02:05;;;;;;;2.60;2.40;;;-1.50;99.90;;;;;;7383539;19;20332;-80
2023/03/12 05:04:31;;;;;;;2.35;1.92;;;-1.50;99.90;;;;;;7385219;19;20423;-79
2023/03/12 05:06:57;;;;;;;2.05;1.80;;;-1.50;99.90;;;;;;7384938;19;20315;-80
2023/03/12 05:09:22;;;;;;;2.50;2.03;;;-1.50;99.90;;;;;;7385872;19;20304;-81
2023/03/12 05:11:50;;;;;;;1.95;1.80;;;-1.60;99.90;;;;;;7383059;19;20313;-79
2023/03/12 05:14:18;;;;;;;2.47;1.90;;;-1.50;99.90;;;;;;7385616;19;20324;-79
2023/03/12 05:16:45;;;;;;;2.33;1.90;;;-1.50;99.90;;;;;;7384925;19;20316;-79
2023/03/12 05:19:12;;;;;;;2.07;1.87;;;-1.60;99.90;;;;;;7383694;19;20341;-80
2023/03/12 05:21:39;;;;;;;2.90;1.92;;;-1.50;99.90;;;;;;7384325;19;21311;-79
2023/03/12 05:24:06;;;;;;;1.88;1.77;;;-1.60;99.90;;;;;;7382110;19;20392;-78
2023/03/12 05:26:31;;;;;;;2.03;1.88;;;-1.60;99.90;;;;;;7383022;19;20340;-78
2023/03/12 05:29:17;;;;;;;1.92;1.70;;;-1.60;99.90;;;;;;7383572;19;20699;-78
2023/03/12 05:31:43;;;;;;;2.10;1.90;;;-1.60;99.90;;;;;;7383082;19;20325;-79
2023/03/12 05:34:11;;;;;;;2.20;2.00;;;-1.60;99.90;;;;;;7381819;19;20705;-78
2023/03/12 05:36:38;;;;;;;2.47;2.15;;;-1.60;99.90;;;;;;7383926;19;20320;-78
2023/03/12 05:39:04;;;;;;;2.72;1.80;;;-1.60;99.90;;;;;;7382332;19;20327;-79
2023/03/12 05:41:31;;;;;;;3.13;1.85;;;-1.60;99.90;;;;;;7384608;19;20398;-79
2023/03/12 05:44:03;;;;;;;2.80;2.05;;;-1.60;99.90;;;;;;7380866;19;20366;-79
2023/03/12 05:46:29;;;;;;;2.10;1.90;;;-1.60;99.90;;;;;;7383023;19;20321;-80
2023/03/12 05:48:54;;;;;;;1.90;1.80;;;-1.60;99.90;;;;;;7383127;19;20442;-80
2023/03/12 05:51:20;;;;;;;1.88;1.77;;;-1.50;99.90;;;;;;7383937;19;20321;-79
2023/03/12 05:53:46;;;;;;;2.75;2.08;;;-1.50;99.90;;;;;;7380491;19;20353;-78
2023/03/12 05:56:14;;;;;;;3.67;2.00;;;-1.40;99.90;;;;;;7382849;19;20322;-78
2023/03/12 05:58:40;;;;;;;4.30;2.10;;;-1.50;99.90;;;;;;7383014;19;21211;-80
2023/03/12 06:01:14;;;;;;;3.17;2.08;;;-1.50;99.90;;;;;;7383675;19;20327;-79
2023/03/12 06:03:41;;;;;;;3.30;1.77;;;-1.40;99.90;;;;;;7382780;19;20335;-78
2023/03/12 06:06:07;;;;;;;1.90;1.80;;;-1.40;99.90;;;;;;7383230;19;20337;-80
2023/03/12 06:08:33;;;;;;;2.13;1.90;;;-1.40;99.90;;;;;;7383497;19;20666;-79
2023/03/12 06:10:58;;;;;;;2.90;1.83;;;-1.40;99.90;;;;;;7384891;19;20674;-81
2023/03/12 06:13:26;;;;;;;3.15;1.95;;;-1.30;99.90;;;;;;7381985;19;20377;-80
2023/03/12 06:15:51;;;;;;;3.75;1.83;;;-1.30;99.90;;;;;;7381605;19;20851;-80
2023/03/12 06:18:18;;;;;;;2.33;2.00;;;-1.30;99.90;;;;;;7384887;19;20349;-78
2023/03/12 06:20:43;;;;;;;3.47;2.10;;;-1.30;99.90;;;;;;7384042;19;20341;-80
2023/03/12 06:23:10;;;;;;;2.53;1.80;;;-1.30;99.90;;;;;;7382974;19;20855;-85
2023/03/12 06:25:36;;;;;;;2.75;2.08;;;-1.30;99.90;;;;;;7381438;19;20342;-82
2023/03/12 06:28:02;;;;;;;3.28;2.17;;;-1.20;99.90;;;;;;7382661;19;21266;-79
2023/03/12 06:30:27;;;;;;;2.50;2.17;;;-1.20;99.90;;;;;;7384324;19;20309;-79
2023/03/12 06:32:53;;;;;;;2.33;1.88;;;-1.20;99.90;;;;;;7382908;19;20382;-79
2023/03/12 06:35:19;;;;;;;2.37;2.17;;;-1.10;99.90;;;;;;7381558;19;20675;-78
2023/03/12 06:37:44;;;;;;;2.15;1.95;;;-1.10;99.90;;;;;;7382617;19;20998;-80
2023/03/12 06:40:11;;;;;;;5.50;2.58;;;-1.00;99.90;;;;;;7384925;19;20432;-79
2023/03/12 06:42:37;;;;;;;2.57;2.37;;;-1.00;99.90;;;;;;7382062;19;20338;-78
2023/03/12 06:45:04;;;;;;;2.03;1.83;;;-0.90;99.90;;;;;;7381251;19;20328;-78
2023/03/12 06:47:29;;;;;;;2.60;2.05;;;-0.80;99.90;;;;;;7384965;19;20400;-81
2023/03/12 06:49:55;;;;;;;3.90;2.20;;;-0.80;99.90;;;;;;7384738;19;20417;-80
2023/03/12 06:52:20;;;;;;;2.38;2.05;;;-0.70;99.90;;;;;;7383263;19;20331;-79
2023/03/12 06:54:46;;;;;;;3.27;2.40;;;-0.60;99.90;;;;;;7381427;19;20331;-78
2023/03/12 06:57:12;;;;;;;2.38;2.10;;;-0.60;99.90;;;;;;7383493;19;20324;-78
2023/03/12 06:59:37;;;;;;;3.90;2.50;;;-0.60;99.90;;;;;;7383769;19;20771;-81
2023/03/12 07:02:03;;;;;;;2.38;2.00;;;-0.50;99.90;;;;;;7383167;19;20354;-80
2023/03/12 07:04:29;;;;;;;3.63;2.50;;;-0.40;99.90;;;;;;7381151;19;20693;-87
2023/03/12 07:06:56;;;;;;;3.85;2.60;;;-0.40;99.90;;;;;;7382186;19;20324;-86
2023/03/12 07:09:22;;;;;;;3.40;2.60;;;-0.30;99.90;;;;;;7380496;19;20686;-83
2023/03/12 07:11:47;;;;;;;2.20;1.83;;;-0.30;99.90;;;;;;7380563;19;20345;-78
2023/03/12 07:14:13;;;;;;;2.22;2.00;;;-0.20;99.90;;;;;;7381866;19;21189;-82
2023/03/12 07:16:38;;;;;;;2.40;1.73;;;-0.20;99.90;;;;;;7380565;19;20339;-77
2023/03/12 07:19:05;;;;;;;3.00;1.90;;;-0.10;99.90;;;;;;7381044;19;20348;-76
2023/03/12 07:21:32;;;;;;;3.33;1.85;;;0.00;99.90;;;;;;7380715;19;20363;-80
2023/03/12 07:23:57;;;;;;;2.65;1.80;;;0.00;99.90;;;;;;7375092;19;20321;-77
2023/03/12 07:26:23;;;;;;;2.55;2.20;;;0.20;99.90;;;;;;7379828;19;20308;-77
2023/03/12 07:28:49;;;;;;;3.30;2.30;;;0.20;99.90;;;;;;7380315;19;20325;-81
2023/03/12 07:31:14;;;;;;;1.90;1.80;;;0.30;99.90;;;;;;7379778;19;20332;-79
2023/03/12 07:33:40;;;;;;;3.50;2.30;;;0.40;99.90;;;;;;7383063;19;20838;-79
2023/03/12 07:36:06;;;;;;;4.30;2.70;;;0.50;99.90;;;;;;7359772;19;20912;-87
2023/03/12 07:38:34;;;;;;;2.60;2.30;;;0.50;99.90;;;;;;7400520;19;20324;-82
2023/03/12 07:41:07;;;;;;;2.28;2.08;;;0.50;99.90;;;;;;7402307;19;20347;-84
2023/03/12 07:43:34;;;;;;;3.45;2.65;;;0.60;99.90;;;;;;7393075;19;20422;-85
2023/03/12 07:46:00;;;;;;;4.25;2.25;;;0.60;99.90;;;;;;7383592;19;20325;-80
2023/03/12 07:48:25;;;;;;;2.97;2.67;;;0.60;99.90;;;;;;7385386;19;20327;-81
2023/03/12 07:50:51;;;;;;;3.28;2.00;;;0.70;99.90;;;;;;7384187;19;20347;-79
2023/03/12 07:53:17;;;;;;;3.45;2.40;;;0.80;99.90;;;;;;7386342;19;20313;-84
2023/03/12 07:55:43;;;;;;;3.60;2.00;;;0.80;99.90;;;;;;7383363;19;20349;-80
2023/03/12 07:58:09;;;;;;;3.90;2.10;;;0.80;99.90;;;;;;7384602;19;20308;-81
2023/03/12 08:00:34;;;;;;;3.13;2.03;;;1.00;99.90;;;;;;7383392;19;20324;-79
2023/03/12 08:03:00;;;;;;;2.83;2.47;;;1.00;99.90;;;;;;7379972;19;20343;-79
2023/03/12 08:05:26;;;;;;;3.43;2.30;;;1.00;99.90;;;;;;7380530;19;20400;-85
2023/03/12 08:07:51;;;;;;;2.70;2.17;;;1.00;99.90;;;;;;7382278;19;20320;-80
2023/03/12 08:10:17;;;;;;;4.50;2.20;;;1.10;99.90;;;;;;7383064;19;20336;-84
2023/03/12 08:12:43;;;;;;;2.30;2.00;;;1.20;99.90;;;;;;7380684;19;20362;-78
2023/03/12 08:15:09;;;;;;;3.70;2.60;;;1.30;99.90;;;;;;7376829;19;20439;-78
2023/03/12 08:17:35;;;;;;;2.50;2.30;;;1.40;99.90;;;;;;7348410;19;20320;-77
2023/03/12 08:20:00;;;;;;;3.85;2.25;;;1.50;99.90;;;;;;7385143;19;20344;-79
2023/03/12 08:22:26;;;;;;;3.83;2.10;;;1.60;99.90;;;;;;7384450;19;20647;-78
2023/03/12 08:24:52;;;;;;;4.72;3.63;;;1.60;99.90;;;;;;7383106;19;20313;-80
2023/03/12 08:27:17;;;;;;;3.27;2.20;;;1.70;99.90;;;;;;7382699;19;20312;-77
2023/03/12 08:29:43;;;;;;;4.43;2.37;;;1.80;99.90;;;;;;7383510;19;20377;-79
2023/03/12 08:32:09;;;;;;;2.75;2.28;;;1.80;99.90;;;;;;7381640;19;20447;-76
2023/03/12 08:34:35;;;;;;;2.05;1.90;;;1.80;99.90;;;;;;7382492;19;20426;-81
2023/03/12 08:37:01;;;;;;;2.60;1.98;;;1.80;99.90;;;;;;7383290;19;20317;-77
2023/03/12 08:39:27;;;;;;;2.63;2.13;;;1.80;99.90;;;;;;7383479;19;20317;-78
2023/03/12 08:41:54;;;;;;;3.40;2.10;;;1.70;99.90;;;;;;7383272;19;20320;-77
2023/03/12 08:44:22;;;;;;;2.00;1.83;;;1.80;99.90;;;;;;7384281;19;20354;-88
2023/03/12 08:46:48;;;;;;;2.10;1.90;;;1.80;99.90;;;;;;7384275;19;21292;-78
2023/03/12 08:49:13;;;;;;;2.77;2.27;;;1.80;99.90;;;;;;7385220;19;20332;-88
2023/03/12 08:51:39;;;;;;;2.55;2.30;;;1.90;99.90;;;;;;7384234;19;20356;-80
2023/03/12 08:54:06;;;;;;;4.05;3.00;;;2.00;99.90;;;;;;7386928;19;20328;-81
2023/03/12 08:56:32;;;;;;;4.70;2.10;;;2.20;99.90;;;;;;7381337;19;20662;-80
2023/03/12 08:58:58;;;;;;;2.45;2.00;;;2.20;99.90;;;;;;7381607;19;20409;-80
2023/03/12 09:01:25;;;;;;;3.90;2.47;;;2.20;99.90;;;;;;7382527;19;20368;-82
2023/03/12 09:03:53;;;;;;;3.22;2.30;;;2.40;99.90;;;;;;7381813;19;20793;-81
2023/03/12 09:06:19;;;;;;;4.90;2.20;;;2.40;99.90;;;;;;7379515;19;20403;-81
2023/03/12 09:08:44;;;;;;;2.63;2.30;;;2.40;99.90;;;;;;7380917;19;20900;-80
2023/03/12 09:11:12;;;;;;;3.45;2.25;;;2.60;99.90;;;;;;7381070;19;20768;-81
2023/03/12 09:13:38;;;;;;;2.60;2.10;;;2.50;99.90;;;;;;7381828;19;20328;-78
2023/03/12 09:16:04;;;;;;;2.10;1.90;;;2.60;99.90;;;;;;7380447;19;20353;-81
2023/03/12 09:18:30;;;;;;;2.92;2.15;;;2.70;99.90;;;;;;7379672;19;20373;-78
2023/03/12 09:20:56;;;;;;;3.53;1.93;;;2.80;99.90;;;;;;7381732;19;20316;-79
2023/03/12 09:23:21;;;;;;;2.60;2.10;;;2.90;99.90;;;;;;7378953;19;20325;-80
2023/03/12 09:25:47;;;;;;;2.73;2.27;;;3.00;99.90;;;;;;7379988;19;20336;-81
2023/03/12 09:28:13;;;;;;;5.10;3.25;;;3.10;99.90;;;;;;7378682;19;20352;-80
2023/03/12 09:30:38;;;;;;;4.83;2.97;;;3.20;99.90;;;;;;7381134;19;20324;-80
2023/03/12 09:33:04;;;;;;;3.05;2.35;;;3.30;99.90;;;;;;7379731;19;21010;-82
2023/03/12 09:35:30;;;;;;;2.83;2.20;;;3.50;99.90;;;;;;7374241;19;20443;-81
2023/03/12 09:37:57;;;;;;;2.90;2.15;;;3.60;99.90;;;;;;7383706;19;20346;-77
2023/03/12 09:40:24;;;;;;;3.53;2.17;;;3.70;99.90;;;;;;7380604;19;20325;-80
2023/03/12 09:43:00;;;;;;;2.00;1.77;;;3.80;99.90;;;;;;7380747;19;20828;-79
2023/03/12 09:45:28;;;;;;;3.40;2.30;;;3.80;99.90;;;;;;7380025;19;20316;-84
2023/03/12 09:47:56;;;;;;;3.15;2.28;;;3.80;99.90;;;;;;7379669;19;20769;-83
2023/03/12 09:50:42;;;;;;;4.10;2.33;;;3.80;99.90;;;;;;7382200;19;20300;-79
2023/03/12 09:53:33;;;;;;;2.17;1.90;;;3.90;99.90;;;;;;7277182;19;2004542;-76
2023/03/12 09:56:01;;;;;;;3.15;2.30;;;4.00;99.90;;;;;;7278771;19;2004458;-82
2023/03/12 09:58:33;;;;;;;2.70;1.93;;;4.00;99.90;;;;;;7382658;19;20305;-85
2023/03/12 10:01:24;;;;;;;2.75;2.45;;;4.10;99.90;;;;;;7279938;19;2004502;-86
2023/03/12 10:04:02;;;;;;;2.10;1.90;;;4.20;99.90;;;;;;7378350;19;20313;-82
2023/03/12 10:06:32;;;;;;;4.63;2.20;;;4.30;99.90;;;;;;7275444;19;2004723;-83
2023/03/12 10:09:12;;;;;;;2.42;2.10;;;4.40;99.90;;;;;;7382509;19;20324;-82
2023/03/12 10:11:53;;;;;;;3.93;2.03;;;4.40;99.90;;;;;;7378262;19;20664;-79
2023/03/12 10:14:36;;;;;;;1.85;1.70;;;4.20;99.90;;;;;;7384349;19;20317;-81
2023/03/12 10:17:21;;;;;;;2.83;1.80;;;4.20;99.90;;;;;;7283035;19;2004185;-87
2023/03/12 10:20:34;;;;;;;3.92;2.40;;;4.40;99.90;;;;;;7383619;19;20434;-86
2023/03/12 10:23:12;;;;;;;2.42;2.20;;;4.50;99.90;;;;;;7175577;19;2018716;-78
2023/03/12 10:25:45;;;;;;;5.95;3.47;;;4.70;99.90;;;;;;7382518;19;20320;-87
2023/03/12 10:28:23;;;;;;;2.78;1.95;;;4.90;99.90;;;;;;7384150;19;20352;-84
2023/03/12 10:31:00;;;;;;;2.38;2.00;;;5.10;99.90;;;;;;7386940;19;20839;-83
2023/03/12 10:33:36;;;;;;;2.80;2.00;;;5.30;99.90;;;;;;7383966;19;20383;-82
2023/03/12 10:36:08;;;;;;;2.65;2.00;;;5.40;99.90;;;;;;7281197;19;2004476;-83
2023/03/12 10:38:34;;;;;;;4.03;1.80;;;5.30;99.90;;;;;;7382626;19;20316;-81
2023/03/12 10:41:00;;;;;;;2.40;1.95;;;5.40;99.90;;;;;;7382861;19;20321;-88
2023/03/12 10:43:25;;;;;;;1.97;1.77;;;5.60;99.90;;;;;;7383358;19;20677;-82
2023/03/12 10:46:00;;;;;;;1.70;1.60;;;5.80;99.90;;;;;;7382437;19;20313;-81
2023/03/12 10:48:26;;;;;;;2.35;1.63;;;6.10;99.90;;;;;;7384468;19;20366;-82
2023/03/12 10:51:09;;;;;;;2.22;1.80;;;6.20;99.90;;;;;;7383581;19;20341;-80
2023/03/12 10:53:36;;;;;;;1.90;1.57;;;6.20;99.90;;;;;;5871625;19;10001721;-81
2023/03/12 10:56:13;;;;;;;3.33;2.20;;;6.40;99.90;;;;;;7383512;19;20331;-90
2023/03/12 10:58:40;;;;;;;2.78;1.50;;;6.40;99.90;;;;;;7392109;19;20384;-78
2023/03/12 11:01:14;;;;;;;1.70;1.60;;;6.50;99.90;;;;;;7383993;19;20344;-79
2023/03/12 11:03:52;;;;;;;2.38;1.50;;;6.70;99.90;;;;;;7415223;19;20312;-78
2023/03/12 11:06:25;;;;;;;1.90;1.55;;;6.70;99.90;;;;;;7412552;19;20316;-79
2023/03/12 11:09:18;;;;;;;1.93;1.50;;;6.30;99.90;;;;;;7413533;19;20296;-77
2023/03/12 11:11:46;;;;;;;1.92;1.60;;;6.60;99.90;;;;;;7310003;19;2016396;-80
2023/03/12 11:14:18;;;;;;;3.42;1.63;;;6.90;99.90;;;;;;7411926;19;20358;-80
2023/03/12 11:17:18;;;;;;;1.67;1.58;;;6.80;99.90;;;;;;7416500;19;20328;-84
2023/03/12 11:19:44;;;;;;;2.33;1.80;;;7.10;99.90;;;;;;7323947;19;2004542;-82
2023/03/12 11:22:10;;;;;;;3.42;2.20;;;7.10;99.90;;;;;;7423498;19;20346;-79
2023/03/12 11:24:54;;;;;;;3.58;1.80;;;7.10;99.90;;;;;;7412747;19;21304;-78
2023/03/12 11:27:41;;;;;;;2.45;1.83;;;7.00;99.90;;;;;;7413188;19;20312;-78
2023/03/12 11:30:14;;;;;;;3.17;1.80;;;7.10;99.90;;;;;;7309285;19;2018715;-81
2023/03/12 11:33:03;;;;;;;2.58;1.85;;;6.90;99.90;;;;;;7327719;19;2004487;-89
2023/03/12 11:35:41;;;;;;;2.53;1.70;;;7.10;99.90;;;;;;7322807;19;2004178;-84
2023/03/12 11:38:17;;;;;;;1.40;1.30;;;7.30;99.90;;;;;;7427801;19;21333;-86
2023/03/12 11:41:06;;;;;;;1.92;1.70;;;7.40;99.90;;;;;;7428049;19;21185;-87
2023/03/12 11:43:45;;;;;;;3.88;1.92;;;7.40;99.90;;;;;;7322218;19;2004679;-88
2023/03/12 11:46:25;;;;;;;2.70;1.75;;;7.40;99.90;;;;;;7424832;19;20373;-87
2023/03/12 11:49:19;;;;;;;1.88;1.40;;;7.50;99.90;;;;;;7427590;19;20339;-87
2023/03/12 11:52:02;;;;;;;4.22;2.63;;;7.50;99.90;;;;;;7309709;19;2004433;-83
2023/03/12 11:54:41;;;;;;;3.88;1.70;;;7.60;99.90;;;;;;7413559;19;20363;-78
2023/03/12 11:57:33;;;;;;;3.70;1.70;;;7.60;99.90;;;;;;7311228;19;2016426;-80
2023/03/12 12:00:10;;;;;;;1.98;1.45;;;7.70;99.90;;;;;;7310591;19;2004407;-84
2023/03/12 12:03:06;;;;;;;1.75;1.63;;;7.80;99.90;;;;;;7411562;19;20320;-84
2023/03/12 12:06:09;;;;;;;1.73;1.63;;;8.20;99.90;;;;;;7307196;19;2018696;-76
2023/03/12 12:08:59;;;;;;;1.70;1.50;;;8.30;99.90;;;;;;7309320;19;2005231;-82
2023/03/12 12:11:34;;;;;;;2.93;1.63;;;8.20;99.90;;;;;;7411922;19;20312;-80
2023/03/12 12:14:28;;;;;;;2.75;1.63;;;8.20;99.90;;;;;;7296228;19;2004319;-83
2023/03/12 12:17:14;;;;;;;1.60;1.48;;;8.10;99.90;;;;;;7384765;19;20335;-85
2023/03/12 12:19:50;;;;;;;1.55;1.45;;;8.20;99.90;;;;;;7277544;19;2004459;-81
2023/03/12 12:22:53;;;;;;;3.22;1.58;;;8.20;99.90;;;;;;7380406;19;20381;-77
2023/03/12 12:25:45;;;;;;;1.52;1.20;;;7.90;99.90;;;;;;7280047;19;2004492;-79
2023/03/12 12:28:35;;;;;;;3.30;2.10;;;7.80;99.90;;;;;;7280603;19;2004633;-77
2023/03/12 12:31:07;;;;;;;4.27;2.10;;;7.70;99.90;;;;;;7282648;19;2004491;-81
2023/03/12 12:34:00;;;;;;;1.70;1.58;;;7.60;99.90;;;;;;7383890;19;20317;-80
2023/03/12 12:36:30;;;;;;;1.67;1.57;;;7.40;99.90;;;;;;7384543;19;20332;-87
2023/03/12 12:39:04;;;;;;;2.38;1.55;;;7.40;99.90;;;;;;7385624;19;20367;-84
2023/03/12 12:41:31;;;;;;;1.40;1.30;;;7.30;99.90;;;;;;7283015;19;2004379;-82
2023/03/12 12:44:00;;;;;;;3.73;1.53;;;7.40;99.90;;;;;;7384838;19;20308;-82
2023/03/12 12:46:33;;;;;;;1.15;1.05;;;7.50;99.90;;;;;;7382358;19;20495;-79
2023/03/12 12:49:10;;;;;;;2.23;1.20;;;7.50;99.90;;;;;;7280758;19;2019362;-78
2023/03/12 12:51:40;;;;;;;1.48;1.38;;;7.60;99.90;;;;;;7384948;19;20396;-80
2023/03/12 12:54:22;;;;;;;3.13;1.70;;;7.60;99.90;;;;;;7383876;19;20339;-82
2023/03/12 12:57:04;;;;;;;2.95;1.42;;;7.40;99.90;;;;;;7382335;19;20344;-78
2023/03/12 12:59:49;;;;;;;1.90;1.35;;;7.30;99.90;;;;;;7280311;19;2019846;-78
2023/03/12 13:02:19;;;;;;;3.23;2.30;;;7.40;99.90;;;;;;7383582;19;20335;-82
2023/03/12 13:04:45;;;;;;;4.63;2.00;;;7.50;99.90;;;;;;7381942;19;20357;-79